sensor_id;sensor_type;location;lat;lon;timestamp;P1;durP1;ratioP1;P2;durP2;ratioP2
75864;SDS011;64510;46.704;38.274;2023-05-14T00:01:38;9.10;;;5.00;;
75864;SDS011;64510;46.704;38.274;2023-05-14T00:04:05;6.05;;;4.43;;
75864;SDS011;64510;46.704;38.274;2023-05-14T00:06:31;6.18;;;3.53;;
75864;SDS011;64510;46.704;38.274;2023-05-14T00:08:57;6.15;;;4.22;;
75864;SDS011;64510;46.704;38.274;2023-05-14T00:11:23;12.35;;;5.30;;
75864;SDS011;64510;46.704;38.274;2023-05-14T00:13:49;8.45;;;5.10;;
75864;SDS011;64510;46.704;38.274;2023-05-14T00:16:15;6.22;;;4.38;;
75864;SDS011;64510;46.704;38.274;2023-05-14T00:18:41;10.05;;;4.60;;
75864;SDS011;64510;46.704;38.274;2023-05-14T00:21:07;6.82;;;4.03;;
75864;SDS011;64510;46.704;38.274;2023-05-14T00:23:33;7.75;;;3.97;;
75864;SDS011;64510;46.704;38.274;2023-05-14T00:25:59;12.73;;;5.18;;
75864;SDS011;64510;46.704;38.274;2023-05-14T00:28:24;7.60;;;5.65;;
75864;SDS011;64510;46.704;38.274;2023-05-14T00:30:50;11.20;;;6.18;;
75864;SDS011;64510;46.704;38.274;2023-05-14T00:33:16;7.43;;;5.40;;
75864;SDS011;64510;46.704;38.274;2023-05-14T00:35:42;7.57;;;3.28;;
75864;SDS011;64510;46.704;38.274;2023-05-14T00:38:09;9.57;;;5.05;;
75864;SDS011;64510;46.704;38.274;2023-05-14T00:40:41;7.32;;;4.47;;
75864;SDS011;64510;46.704;38.274;2023-05-14T00:43:10;8.70;;;4.43;;
75864;SDS011;64510;46.704;38.274;2023-05-14T00:45:37;5.70;;;4.28;;
75864;SDS011;64510;46.704;38.274;2023-05-14T00:48:03;5.50;;;3.83;;
75864;SDS011;64510;46.704;38.274;2023-05-14T00:50:29;5.32;;;4.05;;
75864;SDS011;64510;46.704;38.274;2023-05-14T00:52:55;12.25;;;4.75;;
75864;SDS011;64510;46.704;38.274;2023-05-14T00:55:21;8.43;;;3.63;;
75864;SDS011;64510;46.704;38.274;2023-05-14T00:57:48;10.65;;;4.03;;
75864;SDS011;64510;46.704;38.274;2023-05-14T01:00:15;7.22;;;3.50;;
75864;SDS011;64510;46.704;38.274;2023-05-14T01:02:41;7.40;;;4.43;;
75864;SDS011;64510;46.704;38.274;2023-05-14T01:05:07;7.20;;;3.78;;
75864;SDS011;64510;46.704;38.274;2023-05-14T01:10:20;5.05;;;3.28;;
75864;SDS011;64510;46.704;38.274;2023-05-14T01:13:40;5.68;;;4.20;;
75864;SDS011;64510;46.704;38.274;2023-05-14T01:16:12;7.70;;;4.47;;
75864;SDS011;64510;46.704;38.274;2023-05-14T01:18:42;5.15;;;3.53;;
75864;SDS011;64510;46.704;38.274;2023-05-14T01:21:22;4.32;;;2.88;;
75864;SDS011;64510;46.704;38.274;2023-05-14T01:23:50;8.90;;;4.15;;
75864;SDS011;64510;46.704;38.274;2023-05-14T01:26:16;10.88;;;4.50;;
75864;SDS011;64510;46.704;38.274;2023-05-14T01:28:42;6.20;;;4.03;;
75864;SDS011;64510;46.704;38.274;2023-05-14T01:31:11;7.18;;;5.35;;
75864;SDS011;64510;46.704;38.274;2023-05-14T01:33:43;5.85;;;4.20;;
75864;SDS011;64510;46.704;38.274;2023-05-14T01:36:09;12.27;;;4.25;;
75864;SDS011;64510;46.704;38.274;2023-05-14T01:38:35;7.20;;;3.65;;
75864;SDS011;64510;46.704;38.274;2023-05-14T01:41:03;8.20;;;3.85;;
75864;SDS011;64510;46.704;38.274;2023-05-14T01:43:30;7.20;;;4.88;;
75864;SDS011;64510;46.704;38.274;2023-05-14T01:45:56;6.63;;;4.53;;
75864;SDS011;64510;46.704;38.274;2023-05-14T01:48:23;8.32;;;5.68;;
75864;SDS011;64510;46.704;38.274;2023-05-14T01:50:49;4.95;;;4.18;;
75864;SDS011;64510;46.704;38.274;2023-05-14T01:53:15;6.13;;;3.63;;
75864;SDS011;64510;46.704;38.274;2023-05-14T01:55:41;7.25;;;4.38;;
75864;SDS011;64510;46.704;38.274;2023-05-14T01:58:08;6.30;;;4.05;;
75864;SDS011;64510;46.704;38.274;2023-05-14T02:00:34;6.40;;;4.60;;
75864;SDS011;64510;46.704;38.274;2023-05-14T02:03:00;13.65;;;4.32;;
75864;SDS011;64510;46.704;38.274;2023-05-14T02:05:26;7.53;;;4.38;;
75864;SDS011;64510;46.704;38.274;2023-05-14T02:07:52;8.40;;;3.50;;
75864;SDS011;64510;46.704;38.274;2023-05-14T02:10:18;10.35;;;5.20;;
75864;SDS011;64510;46.704;38.274;2023-05-14T02:12:48;11.63;;;4.88;;
75864;SDS011;64510;46.704;38.274;2023-05-14T02:15:15;5.80;;;4.30;;
75864;SDS011;64510;46.704;38.274;2023-05-14T02:17:41;9.50;;;5.05;;
75864;SDS011;64510;46.704;38.274;2023-05-14T02:20:09;6.30;;;4.57;;
75864;SDS011;64510;46.704;38.274;2023-05-14T02:22:35;7.60;;;3.83;;
75864;SDS011;64510;46.704;38.274;2023-05-14T02:25:02;8.43;;;4.80;;
75864;SDS011;64510;46.704;38.274;2023-05-14T02:27:28;9.55;;;4.55;;
75864;SDS011;64510;46.704;38.274;2023-05-14T02:29:54;7.20;;;4.13;;
75864;SDS011;64510;46.704;38.274;2023-05-14T02:34:51;7.45;;;4.35;;
75864;SDS011;64510;46.704;38.274;2023-05-14T02:37:17;5.35;;;4.13;;
75864;SDS011;64510;46.704;38.274;2023-05-14T02:39:43;7.03;;;4.55;;
75864;SDS011;64510;46.704;38.274;2023-05-14T02:42:09;5.07;;;4.07;;
75864;SDS011;64510;46.704;38.274;2023-05-14T02:44:35;9.27;;;4.30;;
75864;SDS011;64510;46.704;38.274;2023-05-14T02:47:01;7.05;;;4.15;;
75864;SDS011;64510;46.704;38.274;2023-05-14T02:49:27;8.75;;;4.15;;
75864;SDS011;64510;46.704;38.274;2023-05-14T02:51:53;7.93;;;4.43;;
75864;SDS011;64510;46.704;38.274;2023-05-14T02:54:19;7.57;;;4.45;;
75864;SDS011;64510;46.704;38.274;2023-05-14T02:56:45;7.15;;;4.60;;
75864;SDS011;64510;46.704;38.274;2023-05-14T02:59:11;10.63;;;5.15;;
75864;SDS011;64510;46.704;38.274;2023-05-14T03:01:37;7.13;;;4.90;;
75864;SDS011;64510;46.704;38.274;2023-05-14T03:04:03;6.85;;;5.13;;
75864;SDS011;64510;46.704;38.274;2023-05-14T03:06:29;5.90;;;4.15;;
75864;SDS011;64510;46.704;38.274;2023-05-14T03:08:55;9.40;;;4.50;;
75864;SDS011;64510;46.704;38.274;2023-05-14T03:11:21;9.52;;;4.57;;
75864;SDS011;64510;46.704;38.274;2023-05-14T03:13:47;7.47;;;4.32;;
75864;SDS011;64510;46.704;38.274;2023-05-14T03:16:13;7.85;;;4.70;;
75864;SDS011;64510;46.704;38.274;2023-05-14T03:18:39;6.40;;;4.10;;
75864;SDS011;64510;46.704;38.274;2023-05-14T03:21:07;5.88;;;3.97;;
75864;SDS011;64510;46.704;38.274;2023-05-14T03:23:33;7.60;;;4.00;;
75864;SDS011;64510;46.704;38.274;2023-05-14T03:26:00;12.60;;;4.60;;
75864;SDS011;64510;46.704;38.274;2023-05-14T03:28:26;5.30;;;4.60;;
75864;SDS011;64510;46.704;38.274;2023-05-14T03:30:52;11.05;;;4.18;;
75864;SDS011;64510;46.704;38.274;2023-05-14T03:33:18;8.63;;;5.03;;
75864;SDS011;64510;46.704;38.274;2023-05-14T03:35:45;8.45;;;4.60;;
75864;SDS011;64510;46.704;38.274;2023-05-14T03:38:11;8.25;;;4.57;;
75864;SDS011;64510;46.704;38.274;2023-05-14T03:40:37;11.55;;;4.95;;
75864;SDS011;64510;46.704;38.274;2023-05-14T03:43:03;7.68;;;4.32;;
75864;SDS011;64510;46.704;38.274;2023-05-14T03:45:29;7.40;;;3.38;;
75864;SDS011;64510;46.704;38.274;2023-05-14T03:47:57;5.40;;;3.50;;
75864;SDS011;64510;46.704;38.274;2023-05-14T03:50:23;6.60;;;4.45;;
75864;SDS011;64510;46.704;38.274;2023-05-14T03:52:50;5.00;;;3.30;;
75864;SDS011;64510;46.704;38.274;2023-05-14T03:55:19;5.90;;;4.38;;
75864;SDS011;64510;46.704;38.274;2023-05-14T03:57:49;7.53;;;3.65;;
75864;SDS011;64510;46.704;38.274;2023-05-14T04:00:15;11.18;;;5.13;;
75864;SDS011;64510;46.704;38.274;2023-05-14T04:02:44;11.23;;;5.38;;
75864;SDS011;64510;46.704;38.274;2023-05-14T04:05:10;8.02;;;4.75;;
75864;SDS011;64510;46.704;38.274;2023-05-14T04:07:35;14.02;;;4.65;;
75864;SDS011;64510;46.704;38.274;2023-05-14T04:10:02;13.35;;;5.15;;
75864;SDS011;64510;46.704;38.274;2023-05-14T04:12:29;15.77;;;4.55;;
75864;SDS011;64510;46.704;38.274;2023-05-14T04:14:56;11.48;;;5.32;;
75864;SDS011;64510;46.704;38.274;2023-05-14T04:17:22;13.38;;;5.75;;
75864;SDS011;64510;46.704;38.274;2023-05-14T04:19:48;13.90;;;5.20;;
75864;SDS011;64510;46.704;38.274;2023-05-14T04:22:14;13.35;;;4.75;;
75864;SDS011;64510;46.704;38.274;2023-05-14T04:24:40;10.15;;;5.50;;
75864;SDS011;64510;46.704;38.274;2023-05-14T04:27:06;7.28;;;3.55;;
75864;SDS011;64510;46.704;38.274;2023-05-14T04:29:32;15.27;;;5.78;;
75864;SDS011;64510;46.704;38.274;2023-05-14T04:31:58;12.57;;;5.03;;
75864;SDS011;64510;46.704;38.274;2023-05-14T04:34:24;14.70;;;5.35;;
75864;SDS011;64510;46.704;38.274;2023-05-14T04:36:50;12.85;;;4.55;;
75864;SDS011;64510;46.704;38.274;2023-05-14T04:39:16;12.20;;;5.40;;
75864;SDS011;64510;46.704;38.274;2023-05-14T04:41:43;10.90;;;5.53;;
75864;SDS011;64510;46.704;38.274;2023-05-14T04:44:09;11.95;;;5.85;;
75864;SDS011;64510;46.704;38.274;2023-05-14T04:46:36;11.85;;;5.10;;
75864;SDS011;64510;46.704;38.274;2023-05-14T04:49:02;11.35;;;5.15;;
75864;SDS011;64510;46.704;38.274;2023-05-14T04:51:28;14.98;;;4.78;;
75864;SDS011;64510;46.704;38.274;2023-05-14T04:53:54;12.80;;;4.93;;
75864;SDS011;64510;46.704;38.274;2023-05-14T04:56:20;11.73;;;4.70;;
75864;SDS011;64510;46.704;38.274;2023-05-14T04:58:46;12.05;;;5.47;;
75864;SDS011;64510;46.704;38.274;2023-05-14T05:01:12;9.90;;;5.15;;
75864;SDS011;64510;46.704;38.274;2023-05-14T05:03:38;7.72;;;4.28;;
75864;SDS011;64510;46.704;38.274;2023-05-14T05:06:03;7.43;;;4.60;;
75864;SDS011;64510;46.704;38.274;2023-05-14T05:08:30;14.50;;;4.88;;
75864;SDS011;64510;46.704;38.274;2023-05-14T05:10:55;9.73;;;4.82;;
75864;SDS011;64510;46.704;38.274;2023-05-14T05:13:21;10.65;;;5.20;;
75864;SDS011;64510;46.704;38.274;2023-05-14T05:15:47;9.80;;;4.53;;
75864;SDS011;64510;46.704;38.274;2023-05-14T05:18:13;26.90;;;4.97;;
75864;SDS011;64510;46.704;38.274;2023-05-14T05:20:39;11.75;;;4.78;;
75864;SDS011;64510;46.704;38.274;2023-05-14T05:23:05;9.93;;;5.03;;
75864;SDS011;64510;46.704;38.274;2023-05-14T05:25:31;8.82;;;4.05;;
75864;SDS011;64510;46.704;38.274;2023-05-14T05:27:57;7.68;;;5.05;;
75864;SDS011;64510;46.704;38.274;2023-05-14T05:30:23;7.40;;;4.60;;
75864;SDS011;64510;46.704;38.274;2023-05-14T05:32:48;12.80;;;5.20;;
75864;SDS011;64510;46.704;38.274;2023-05-14T05:35:14;7.32;;;4.82;;
75864;SDS011;64510;46.704;38.274;2023-05-14T05:37:41;14.70;;;5.88;;
75864;SDS011;64510;46.704;38.274;2023-05-14T05:40:07;7.93;;;4.53;;
75864;SDS011;64510;46.704;38.274;2023-05-14T05:42:34;9.98;;;5.22;;
75864;SDS011;64510;46.704;38.274;2023-05-14T05:45:00;16.45;;;4.70;;
75864;SDS011;64510;46.704;38.274;2023-05-14T05:47:26;7.78;;;5.53;;
75864;SDS011;64510;46.704;38.274;2023-05-14T05:49:52;12.10;;;4.43;;
75864;SDS011;64510;46.704;38.274;2023-05-14T05:52:18;17.02;;;5.05;;
75864;SDS011;64510;46.704;38.274;2023-05-14T05:54:44;13.55;;;4.28;;
75864;SDS011;64510;46.704;38.274;2023-05-14T05:57:10;11.15;;;4.28;;
75864;SDS011;64510;46.704;38.274;2023-05-14T05:59:35;10.10;;;4.38;;
75864;SDS011;64510;46.704;38.274;2023-05-14T06:02:01;12.60;;;5.70;;
75864;SDS011;64510;46.704;38.274;2023-05-14T06:04:27;9.77;;;4.43;;
75864;SDS011;64510;46.704;38.274;2023-05-14T06:06:53;15.30;;;4.75;;
75864;SDS011;64510;46.704;38.274;2023-05-14T06:09:19;9.38;;;5.13;;
75864;SDS011;64510;46.704;38.274;2023-05-14T06:11:45;11.73;;;5.45;;
75864;SDS011;64510;46.704;38.274;2023-05-14T06:14:11;12.35;;;4.75;;
75864;SDS011;64510;46.704;38.274;2023-05-14T06:16:37;10.05;;;5.63;;
75864;SDS011;64510;46.704;38.274;2023-05-14T06:19:03;11.13;;;3.92;;
75864;SDS011;64510;46.704;38.274;2023-05-14T06:21:29;10.95;;;4.50;;
75864;SDS011;64510;46.704;38.274;2023-05-14T06:23:55;6.10;;;4.65;;
75864;SDS011;64510;46.704;38.274;2023-05-14T06:26:21;11.85;;;5.38;;
75864;SDS011;64510;46.704;38.274;2023-05-14T06:28:47;10.98;;;5.10;;
75864;SDS011;64510;46.704;38.274;2023-05-14T06:31:13;8.40;;;4.60;;
75864;SDS011;64510;46.704;38.274;2023-05-14T06:33:39;8.02;;;4.68;;
75864;SDS011;64510;46.704;38.274;2023-05-14T06:36:05;12.88;;;5.00;;
75864;SDS011;64510;46.704;38.274;2023-05-14T06:38:32;9.27;;;5.00;;
75864;SDS011;64510;46.704;38.274;2023-05-14T06:40:58;10.27;;;4.97;;
75864;SDS011;64510;46.704;38.274;2023-05-14T06:43:24;12.10;;;4.97;;
75864;SDS011;64510;46.704;38.274;2023-05-14T06:45:50;11.85;;;3.80;;
75864;SDS011;64510;46.704;38.274;2023-05-14T06:48:17;13.18;;;4.32;;
75864;SDS011;64510;46.704;38.274;2023-05-14T06:50:43;7.53;;;4.32;;
75864;SDS011;64510;46.704;38.274;2023-05-14T06:53:10;7.90;;;3.88;;
75864;SDS011;64510;46.704;38.274;2023-05-14T06:55:36;9.18;;;4.25;;
75864;SDS011;64510;46.704;38.274;2023-05-14T06:58:02;7.78;;;3.80;;
75864;SDS011;64510;46.704;38.274;2023-05-14T07:00:30;6.45;;;4.00;;
75864;SDS011;64510;46.704;38.274;2023-05-14T07:02:56;7.72;;;4.20;;
75864;SDS011;64510;46.704;38.274;2023-05-14T07:05:23;6.70;;;3.85;;
75864;SDS011;64510;46.704;38.274;2023-05-14T07:07:49;8.82;;;3.97;;
75864;SDS011;64510;46.704;38.274;2023-05-14T07:10:15;7.88;;;5.20;;
75864;SDS011;64510;46.704;38.274;2023-05-14T07:12:41;11.02;;;4.97;;
75864;SDS011;64510;46.704;38.274;2023-05-14T07:15:07;11.68;;;4.65;;
75864;SDS011;64510;46.704;38.274;2023-05-14T07:17:33;13.50;;;5.57;;
75864;SDS011;64510;46.704;38.274;2023-05-14T07:19:59;7.32;;;4.78;;
75864;SDS011;64510;46.704;38.274;2023-05-14T07:22:25;9.02;;;3.20;;
75864;SDS011;64510;46.704;38.274;2023-05-14T07:24:51;6.18;;;4.80;;
75864;SDS011;64510;46.704;38.274;2023-05-14T07:27:17;15.90;;;4.72;;
75864;SDS011;64510;46.704;38.274;2023-05-14T07:29:43;6.82;;;3.85;;
75864;SDS011;64510;46.704;38.274;2023-05-14T07:32:09;7.50;;;4.53;;
75864;SDS011;64510;46.704;38.274;2023-05-14T07:34:35;10.10;;;4.32;;
75864;SDS011;64510;46.704;38.274;2023-05-14T07:37:01;10.20;;;4.05;;
75864;SDS011;64510;46.704;38.274;2023-05-14T07:39:27;13.70;;;4.57;;
75864;SDS011;64510;46.704;38.274;2023-05-14T07:41:53;13.10;;;4.45;;
75864;SDS011;64510;46.704;38.274;2023-05-14T07:44:19;6.88;;;4.18;;
75864;SDS011;64510;46.704;38.274;2023-05-14T07:46:45;5.72;;;4.22;;
75864;SDS011;64510;46.704;38.274;2023-05-14T07:49:12;7.68;;;3.80;;
75864;SDS011;64510;46.704;38.274;2023-05-14T07:51:37;7.80;;;4.30;;
75864;SDS011;64510;46.704;38.274;2023-05-14T07:54:03;6.18;;;3.72;;
75864;SDS011;64510;46.704;38.274;2023-05-14T07:56:29;10.85;;;3.95;;
75864;SDS011;64510;46.704;38.274;2023-05-14T07:58:55;6.40;;;3.65;;
75864;SDS011;64510;46.704;38.274;2023-05-14T08:01:21;6.97;;;3.45;;
75864;SDS011;64510;46.704;38.274;2023-05-14T08:03:47;4.93;;;3.97;;
75864;SDS011;64510;46.704;38.274;2023-05-14T08:06:13;5.30;;;3.53;;
75864;SDS011;64510;46.704;38.274;2023-05-14T08:08:39;5.55;;;3.53;;
75864;SDS011;64510;46.704;38.274;2023-05-14T08:11:05;9.18;;;4.20;;
75864;SDS011;64510;46.704;38.274;2023-05-14T08:13:31;9.45;;;4.03;;
75864;SDS011;64510;46.704;38.274;2023-05-14T08:15:57;6.18;;;4.28;;
75864;SDS011;64510;46.704;38.274;2023-05-14T08:18:23;6.47;;;3.75;;
75864;SDS011;64510;46.704;38.274;2023-05-14T08:20:49;5.13;;;3.55;;
75864;SDS011;64510;46.704;38.274;2023-05-14T08:23:15;7.85;;;4.35;;
75864;SDS011;64510;46.704;38.274;2023-05-14T08:25:41;9.45;;;3.75;;
75864;SDS011;64510;46.704;38.274;2023-05-14T08:28:07;8.07;;;3.92;;
75864;SDS011;64510;46.704;38.274;2023-05-14T08:30:33;7.32;;;3.55;;
75864;SDS011;64510;46.704;38.274;2023-05-14T08:32:59;7.80;;;4.05;;
75864;SDS011;64510;46.704;38.274;2023-05-14T08:35:25;9.00;;;3.97;;
75864;SDS011;64510;46.704;38.274;2023-05-14T08:37:51;8.55;;;4.25;;
75864;SDS011;64510;46.704;38.274;2023-05-14T08:40:17;7.80;;;3.63;;
75864;SDS011;64510;46.704;38.274;2023-05-14T08:42:43;6.28;;;4.28;;
75864;SDS011;64510;46.704;38.274;2023-05-14T08:45:23;6.38;;;4.00;;
75864;SDS011;64510;46.704;38.274;2023-05-14T08:47:55;6.20;;;2.60;;
75864;SDS011;64510;46.704;38.274;2023-05-14T08:50:23;6.88;;;3.78;;
75864;SDS011;64510;46.704;38.274;2023-05-14T08:52:51;7.32;;;4.38;;
75864;SDS011;64510;46.704;38.274;2023-05-14T08:55:17;5.53;;;3.85;;
75864;SDS011;64510;46.704;38.274;2023-05-14T08:57:44;6.57;;;3.55;;
75864;SDS011;64510;46.704;38.274;2023-05-14T09:00:10;10.82;;;3.53;;
75864;SDS011;64510;46.704;38.274;2023-05-14T09:02:38;6.72;;;3.78;;
75864;SDS011;64510;46.704;38.274;2023-05-14T09:05:05;7.80;;;3.42;;
75864;SDS011;64510;46.704;38.274;2023-05-14T09:07:31;5.25;;;3.67;;
75864;SDS011;64510;46.704;38.274;2023-05-14T09:09:58;7.53;;;3.92;;
75864;SDS011;64510;46.704;38.274;2023-05-14T09:12:24;8.27;;;2.67;;
75864;SDS011;64510;46.704;38.274;2023-05-14T09:14:50;2.72;;;2.50;;
75864;SDS011;64510;46.704;38.274;2023-05-14T09:17:16;7.57;;;3.28;;
75864;SDS011;64510;46.704;38.274;2023-05-14T09:19:43;7.82;;;3.28;;
75864;SDS011;64510;46.704;38.274;2023-05-14T09:22:14;5.70;;;3.63;;
75864;SDS011;64510;46.704;38.274;2023-05-14T09:24:41;3.75;;;2.92;;
75864;SDS011;64510;46.704;38.274;2023-05-14T09:27:08;6.53;;;3.35;;
75864;SDS011;64510;46.704;38.274;2023-05-14T09:29:40;5.45;;;2.75;;
75864;SDS011;64510;46.704;38.274;2023-05-14T09:32:06;3.28;;;2.53;;
75864;SDS011;64510;46.704;38.274;2023-05-14T09:34:34;7.88;;;3.42;;
75864;SDS011;64510;46.704;38.274;2023-05-14T09:37:03;4.60;;;3.65;;
75864;SDS011;64510;46.704;38.274;2023-05-14T09:39:31;3.28;;;2.90;;
75864;SDS011;64510;46.704;38.274;2023-05-14T09:41:58;7.38;;;3.70;;
75864;SDS011;64510;46.704;38.274;2023-05-14T09:44:24;3.47;;;2.58;;
75864;SDS011;64510;46.704;38.274;2023-05-14T09:46:50;3.08;;;2.78;;
75864;SDS011;64510;46.704;38.274;2023-05-14T09:49:17;6.75;;;3.28;;
75864;SDS011;64510;46.704;38.274;2023-05-14T09:51:43;2.38;;;2.17;;
75864;SDS011;64510;46.704;38.274;2023-05-14T09:54:09;6.30;;;2.88;;
75864;SDS011;64510;46.704;38.274;2023-05-14T09:56:36;3.22;;;2.72;;
75864;SDS011;64510;46.704;38.274;2023-05-14T09:59:03;6.78;;;3.20;;
75864;SDS011;64510;46.704;38.274;2023-05-14T10:01:30;3.40;;;2.58;;
75864;SDS011;64510;46.704;38.274;2023-05-14T10:04:01;3.05;;;2.20;;
75864;SDS011;64510;46.704;38.274;2023-05-14T10:06:29;2.72;;;2.00;;
75864;SDS011;64510;46.704;38.274;2023-05-14T10:09:02;5.28;;;1.90;;
75864;SDS011;64510;46.704;38.274;2023-05-14T10:11:30;3.30;;;2.67;;
75864;SDS011;64510;46.704;38.274;2023-05-14T10:14:08;3.03;;;2.42;;
75864;SDS011;64510;46.704;38.274;2023-05-14T10:16:44;3.30;;;2.70;;
75864;SDS011;64510;46.704;38.274;2023-05-14T10:19:14;4.03;;;2.10;;
75864;SDS011;64510;46.704;38.274;2023-05-14T10:21:43;3.45;;;2.42;;
75864;SDS011;64510;46.704;38.274;2023-05-14T10:24:12;6.13;;;2.20;;
75864;SDS011;64510;46.704;38.274;2023-05-14T10:26:39;4.95;;;3.38;;
75864;SDS011;64510;46.704;38.274;2023-05-14T10:29:06;6.32;;;3.38;;
75864;SDS011;64510;46.704;38.274;2023-05-14T10:31:50;4.75;;;3.63;;
75864;SDS011;64510;46.704;38.274;2023-05-14T10:34:38;8.30;;;3.30;;
75864;SDS011;64510;46.704;38.274;2023-05-14T10:37:07;6.28;;;3.45;;
75864;SDS011;64510;46.704;38.274;2023-05-14T10:42:09;4.30;;;3.05;;
75864;SDS011;64510;46.704;38.274;2023-05-14T10:44:38;6.10;;;3.90;;
75864;SDS011;64510;46.704;38.274;2023-05-14T10:47:20;7.05;;;3.42;;
75864;SDS011;64510;46.704;38.274;2023-05-14T10:49:46;8.70;;;4.07;;
75864;SDS011;64510;46.704;38.274;2023-05-14T10:52:17;10.85;;;5.70;;
75864;SDS011;64510;46.704;38.274;2023-05-14T10:54:50;10.40;;;5.35;;
75864;SDS011;64510;46.704;38.274;2023-05-14T10:57:21;7.47;;;4.43;;
75864;SDS011;64510;46.704;38.274;2023-05-14T10:59:50;10.25;;;5.25;;
75864;SDS011;64510;46.704;38.274;2023-05-14T11:07:44;6.78;;;4.70;;
75864;SDS011;64510;46.704;38.274;2023-05-14T11:10:12;8.02;;;4.53;;
75864;SDS011;64510;46.704;38.274;2023-05-14T11:12:44;10.60;;;4.38;;
75864;SDS011;64510;46.704;38.274;2023-05-14T11:15:24;6.60;;;4.70;;
75864;SDS011;64510;46.704;38.274;2023-05-14T11:17:51;6.47;;;4.47;;
75864;SDS011;64510;46.704;38.274;2023-05-14T11:20:18;8.93;;;4.38;;
75864;SDS011;64510;46.704;38.274;2023-05-14T11:22:45;8.27;;;4.70;;
75864;SDS011;64510;46.704;38.274;2023-05-14T11:25:12;6.07;;;4.68;;
75864;SDS011;64510;46.704;38.274;2023-05-14T11:27:39;7.22;;;4.40;;
75864;SDS011;64510;46.704;38.274;2023-05-14T11:30:13;6.88;;;5.25;;
75864;SDS011;64510;46.704;38.274;2023-05-14T11:32:41;8.90;;;4.47;;
75864;SDS011;64510;46.704;38.274;2023-05-14T11:35:08;6.68;;;3.78;;
75864;SDS011;64510;46.704;38.274;2023-05-14T11:37:35;6.32;;;3.95;;
75864;SDS011;64510;46.704;38.274;2023-05-14T11:40:01;6.28;;;4.28;;
75864;SDS011;64510;46.704;38.274;2023-05-14T11:42:27;10.95;;;4.22;;
75864;SDS011;64510;46.704;38.274;2023-05-14T11:44:53;4.43;;;3.72;;
75864;SDS011;64510;46.704;38.274;2023-05-14T11:47:19;5.45;;;3.67;;
75864;SDS011;64510;46.704;38.274;2023-05-14T11:49:46;6.30;;;4.47;;
75864;SDS011;64510;46.704;38.274;2023-05-14T11:52:13;13.05;;;3.92;;
75864;SDS011;64510;46.704;38.274;2023-05-14T11:54:40;8.13;;;4.75;;
75864;SDS011;64510;46.704;38.274;2023-05-14T11:57:08;4.95;;;3.95;;
75864;SDS011;64510;46.704;38.274;2023-05-14T11:59:35;5.28;;;3.65;;
75864;SDS011;64510;46.704;38.274;2023-05-14T12:02:02;3.67;;;2.90;;
75864;SDS011;64510;46.704;38.274;2023-05-14T12:04:31;4.53;;;3.83;;
75864;SDS011;64510;46.704;38.274;2023-05-14T12:06:59;5.30;;;2.97;;
75864;SDS011;64510;46.704;38.274;2023-05-14T12:09:34;6.43;;;3.28;;
75864;SDS011;64510;46.704;38.274;2023-05-14T12:12:06;7.43;;;3.58;;
75864;SDS011;64510;46.704;38.274;2023-05-14T12:14:40;4.40;;;2.83;;
75864;SDS011;64510;46.704;38.274;2023-05-14T12:19:50;4.78;;;2.50;;
75864;SDS011;64510;46.704;38.274;2023-05-14T12:22:20;5.32;;;3.00;;
75864;SDS011;64510;46.704;38.274;2023-05-14T12:27:23;5.65;;;2.40;;
75864;SDS011;64510;46.704;38.274;2023-05-14T12:29:59;7.20;;;2.60;;
75864;SDS011;64510;46.704;38.274;2023-05-14T12:32:32;3.47;;;2.22;;
75864;SDS011;64510;46.704;38.274;2023-05-14T12:34:59;8.82;;;2.15;;
75864;SDS011;64510;46.704;38.274;2023-05-14T12:37:25;5.85;;;2.70;;
75864;SDS011;64510;46.704;38.274;2023-05-14T12:39:52;4.57;;;2.70;;
75864;SDS011;64510;46.704;38.274;2023-05-14T12:42:18;4.28;;;3.03;;
75864;SDS011;64510;46.704;38.274;2023-05-14T12:44:44;8.82;;;4.40;;
75864;SDS011;64510;46.704;38.274;2023-05-14T12:47:09;8.13;;;3.50;;
75864;SDS011;64510;46.704;38.274;2023-05-14T12:49:35;6.25;;;4.53;;
75864;SDS011;64510;46.704;38.274;2023-05-14T12:52:03;5.75;;;3.75;;
75864;SDS011;64510;46.704;38.274;2023-05-14T12:54:30;7.65;;;4.18;;
75864;SDS011;64510;46.704;38.274;2023-05-14T12:56:56;4.57;;;3.20;;
75864;SDS011;64510;46.704;38.274;2023-05-14T12:59:22;4.35;;;3.58;;
75864;SDS011;64510;46.704;38.274;2023-05-14T13:01:48;4.93;;;3.30;;
75864;SDS011;64510;46.704;38.274;2023-05-14T13:04:14;5.20;;;2.72;;
75864;SDS011;64510;46.704;38.274;2023-05-14T13:06:40;3.83;;;2.50;;
75864;SDS011;64510;46.704;38.274;2023-05-14T13:09:06;9.18;;;3.78;;
75864;SDS011;64510;46.704;38.274;2023-05-14T13:11:33;6.07;;;3.33;;
75864;SDS011;64510;46.704;38.274;2023-05-14T13:14:00;3.60;;;2.83;;
75864;SDS011;64510;46.704;38.274;2023-05-14T13:16:27;4.13;;;2.47;;
75864;SDS011;64510;46.704;38.274;2023-05-14T13:18:53;3.97;;;3.08;;
75864;SDS011;64510;46.704;38.274;2023-05-14T13:21:20;10.65;;;2.83;;
75864;SDS011;64510;46.704;38.274;2023-05-14T13:23:46;3.92;;;2.75;;
75864;SDS011;64510;46.704;38.274;2023-05-14T13:26:12;5.68;;;2.97;;
75864;SDS011;64510;46.704;38.274;2023-05-14T13:28:39;5.10;;;2.70;;
75864;SDS011;64510;46.704;38.274;2023-05-14T13:31:09;4.93;;;2.50;;
75864;SDS011;64510;46.704;38.274;2023-05-14T13:33:40;3.33;;;2.72;;
75864;SDS011;64510;46.704;38.274;2023-05-14T13:36:07;4.72;;;2.25;;
75864;SDS011;64510;46.704;38.274;2023-05-14T13:38:33;3.72;;;2.42;;
75864;SDS011;64510;46.704;38.274;2023-05-14T13:40:59;4.35;;;2.70;;
75864;SDS011;64510;46.704;38.274;2023-05-14T13:43:28;4.15;;;2.30;;
75864;SDS011;64510;46.704;38.274;2023-05-14T13:45:55;3.72;;;2.35;;
75864;SDS011;64510;46.704;38.274;2023-05-14T13:48:22;3.58;;;2.42;;
75864;SDS011;64510;46.704;38.274;2023-05-14T13:50:48;3.15;;;2.35;;
75864;SDS011;64510;46.704;38.274;2023-05-14T13:53:16;3.15;;;2.85;;
75864;SDS011;64510;46.704;38.274;2023-05-14T13:55:47;4.95;;;2.10;;
75864;SDS011;64510;46.704;38.274;2023-05-14T13:58:13;5.00;;;2.40;;
75864;SDS011;64510;46.704;38.274;2023-05-14T14:00:39;3.92;;;2.42;;
75864;SDS011;64510;46.704;38.274;2023-05-14T14:03:05;6.72;;;2.65;;
75864;SDS011;64510;46.704;38.274;2023-05-14T14:05:32;2.45;;;2.25;;
75864;SDS011;64510;46.704;38.274;2023-05-14T14:08:01;2.47;;;2.28;;
75864;SDS011;64510;46.704;38.274;2023-05-14T14:10:27;3.60;;;2.70;;
75864;SDS011;64510;46.704;38.274;2023-05-14T14:12:53;3.22;;;2.95;;
75864;SDS011;64510;46.704;38.274;2023-05-14T14:15:19;2.45;;;2.25;;
75864;SDS011;64510;46.704;38.274;2023-05-14T14:17:45;3.60;;;2.20;;
75864;SDS011;64510;46.704;38.274;2023-05-14T14:20:11;5.65;;;2.60;;
75864;SDS011;64510;46.704;38.274;2023-05-14T14:22:37;4.15;;;2.53;;
75864;SDS011;64510;46.704;38.274;2023-05-14T14:25:05;3.38;;;2.47;;
75864;SDS011;64510;46.704;38.274;2023-05-14T14:27:32;3.75;;;2.10;;
75864;SDS011;64510;46.704;38.274;2023-05-14T14:30:04;4.10;;;2.30;;
75864;SDS011;64510;46.704;38.274;2023-05-14T14:32:31;9.85;;;2.60;;
75864;SDS011;64510;46.704;38.274;2023-05-14T14:34:57;4.03;;;2.10;;
75864;SDS011;64510;46.704;38.274;2023-05-14T14:37:23;4.15;;;2.80;;
75864;SDS011;64510;46.704;38.274;2023-05-14T14:39:49;2.58;;;2.35;;
75864;SDS011;64510;46.704;38.274;2023-05-14T14:42:15;3.08;;;2.55;;
75864;SDS011;64510;46.704;38.274;2023-05-14T14:44:41;4.78;;;2.70;;
75864;SDS011;64510;46.704;38.274;2023-05-14T14:47:07;3.30;;;2.47;;
75864;SDS011;64510;46.704;38.274;2023-05-14T14:49:33;2.28;;;2.08;;